LTAU Airport Information

Runway Information
Runway 07 Length 9841 ft width 145 ft
Elevation 3449 ft Threshold 0 ft Heading 76
Runway 25 Length 9841 ft Width 145 ft
Elevation 3463 ft Threshold 0 ft Heading 256
Airport Frequencies
Type APP Name APP Frequency 122.1 MHZ
Type GND Name GND Frequency 121.95 MHZ
Type TWR Name TWR Frequency 122.1 MHZ
Airport Navaids
Type TACAN Name Kayseri Frequency 116900 KHZ
Type VOR-DME Name Kayseri Frequency 116300 KHZ
Airport Weather Information & NOTAM
ADDS - METARS form results

(1809 UTC 18 March 2019)
Data provider http://aviationweather.gov/metar/data/
 
METAR text: LTAU 181750Z 00000KT CAVOK 08/M04 Q1020 NOSIG RMK RWY07 26003KT 200V310
Conditions at: LTAU (KAYSERI/ERKILET , TR) observed 1750 UTC 18 March 2019
Temperature: 8.0°C (46°F)
Dewpoint: -4.0°C (25°F) [RH = 42%]
Pressure (altimeter): 30.12 inches Hg (1020.0 mb)
Winds: calm
Visibility: 6 or more miles (10+ km)
Ceiling: ceiling and visibility are OK
Clouds: unknown
Weather: no significant weather observed at this time

METAR text: LTAU 181720Z 00000KT CAVOK 07/M03 Q1020 NOSIG RMK RWY07 VRB01KT
Conditions at: LTAU (KAYSERI/ERKILET , TR) observed 1720 UTC 18 March 2019
Temperature: 7.0°C (45°F)
Dewpoint: -3.0°C (27°F) [RH = 49%]
Pressure (altimeter): 30.12 inches Hg (1020.0 mb)
Winds: calm
Visibility: 6 or more miles (10+ km)
Ceiling: ceiling and visibility are OK
Clouds: unknown
Weather: no significant weather observed at this time

Forecast for: LTAU (KAYSERI/ERKILET , TR)
Text: TAF LTAU 181640Z 1818/1918 VRB02KT CAVOK
Forecast period: 1800 UTC 18 March 2019 to 0700 UTC 19 March 2019
Forecast type: FROM: standard forecast or significant change
Winds: variable direction winds at 2 MPH (2 knots; 1.0 m/s)
Visibility: 6 or more miles 10+ km)
Ceiling: unknown
Clouds: missing
Weather: NSW  (no significant weather)
Text: BECMG 1907/1910 16012KT FEW040
Forecast period: 0700 to 1500 UTC 19 March 2019
Forecast type: BECOMING: Conditions expected to become as follows by 1000 UTC 19 March 2019
Winds: from the SSE (160 degrees) at 14 MPH (12 knots; 6.2 m/s)
Visibility: 6 or more miles 10+ km)
Ceiling: at least 12,000 feet AGL
Clouds: few clouds at 4000 feet AGL
Weather: NSW  (no significant weather)
Text: BECMG 1915/1918 VRB02KT CAVOK
Forecast period: 1500 to 1800 UTC 19 March 2019
Forecast type: BECOMING: Conditions expected to become as follows by 1800 UTC 19 March 2019
Winds: variable direction winds at 2 MPH (2 knots; 1.0 m/s)
Visibility: 6 or more miles 10+ km)
Ceiling: unknown
Clouds: missing
Weather: NSW  (no significant weather)